Time;durP1;ratioP1;P1;durP2;ratioP2;P2;SDS_P1;SDS_P2;PMS_P1;PMS_P2;Temp;Humidity;BMP_temperature;BMP_pressure;BME280_temperature;BME280_humidity;BME280_pressure;Samples;Min_cycle;Max_cycle;Signal;HPM_P1;HPM_P2
2022/12/13 13:35:46;;;;;;;39.05;24.40;;;;;;;-2.15;100.00;100883.25;5306288;27;1239291;-73
2022/12/13 13:38:21;;;;;;;37.47;24.50;;;;;;;-2.10;100.00;100885.78;5320311;28;20028;-72
2022/12/13 13:40:52;;;;;;;40.83;22.83;;;;;;;-2.12;100.00;100884.94;5323514;28;20273;-74
2022/12/13 13:43:28;;;;;;;43.87;25.37;;;;;;;-2.11;100.00;100873.84;5322357;28;20050;-75
2022/12/13 13:46:10;;;;;;;37.67;23.53;;;;;;;-2.13;100.00;100853.28;5331586;28;20026;-76
2022/12/13 13:49:07;;;;;;;37.13;21.77;;;;;;;-2.09;100.00;100857.53;5319425;28;20799;-71
2022/12/13 13:52:02;;;;;;;35.97;20.90;;;;;;;-2.04;100.00;100860.06;5323374;28;20378;-75
2022/12/13 13:55:19;;;;;;;33.63;22.83;;;;;;;-1.98;100.00;100861.75;5328042;28;20296;-74
2022/12/13 13:58:04;;;;;;;40.03;23.37;;;;;;;-1.98;100.00;100854.06;5321793;28;20281;-73
2022/12/13 14:01:00;;;;;;;32.23;21.93;;;;;;;-1.96;100.00;100842.06;5323901;28;20361;-74
2022/12/13 14:03:50;;;;;;;33.70;21.33;;;;;;;-1.94;100.00;100845.47;5300379;28;20289;-74
2022/12/13 14:07:03;;;;;;;33.17;22.47;;;;;;;-1.90;100.00;100851.44;5331183;28;20826;-74
2022/12/13 14:09:57;;;;;;;33.23;21.93;;;;;;;-1.89;100.00;100848.00;5303695;28;20468;-74
2022/12/13 14:12:52;;;;;;;33.97;20.73;;;;;;;-1.84;100.00;100841.97;5335571;28;20288;-73
2022/12/13 14:15:54;;;;;;;36.70;22.10;;;;;;;-1.80;100.00;100847.94;5325068;28;20039;-74
2022/12/13 14:19:03;;;;;;;31.83;21.33;;;;;;;-1.76;100.00;100851.34;5318578;28;20331;-73
2022/12/13 14:22:11;;;;;;;32.87;22.53;;;;;;;-1.76;100.00;100847.03;5317274;28;20320;-72
2022/12/13 14:25:04;;;;;;;33.77;20.77;;;;;;;-1.78;100.00;100848.75;5317774;28;20651;-71
2022/12/13 14:27:46;;;;;;;31.37;20.77;;;;;;;-1.77;100.00;100829.94;5319879;28;20305;-72
2022/12/13 14:30:20;;;;;;;30.60;19.83;;;;;;;-1.82;100.00;100823.97;5323277;28;20786;-73
2022/12/13 14:32:52;;;;;;;30.95;20.90;;;;;;;-1.80;100.00;100821.41;5334508;28;20615;-71
2022/12/13 14:35:31;;;;;;;37.03;23.37;;;;;;;-1.79;100.00;100818.81;5336687;28;20044;-72
2022/12/13 14:38:05;;;;;;;29.17;19.73;;;;;;;-1.73;100.00;100817.91;5335195;28;20027;-72
2022/12/13 14:40:47;;;;;;;35.08;22.13;;;;;;;-1.73;100.00;100808.47;5315090;28;20047;-71
2022/12/13 14:43:24;;;;;;;36.53;21.50;;;;;;;-1.67;100.00;100811.84;5317332;28;20019;-71
2022/12/13 14:45:57;;;;;;;31.53;21.37;;;;;;;-1.79;100.00;100807.69;5328067;28;20103;-72
2022/12/13 14:48:43;;;;;;;31.00;22.50;;;;;;;-1.72;100.00;100817.03;5320097;28;20034;-73
2022/12/13 14:51:36;;;;;;;35.23;23.40;;;;;;;-1.72;100.00;100820.47;5311088;28;20028;-72
2022/12/13 14:54:18;;;;;;;36.90;22.47;;;;;;;-1.80;100.00;100813.69;5301118;28;20697;-71
2022/12/13 14:57:01;;;;;;;35.47;21.60;;;;;;;-1.74;100.00;100821.34;5314756;28;20024;-71
2022/12/13 14:59:32;;;;;;;33.80;22.03;;;;;;;-1.96;100.00;100785.59;5313872;28;20036;-72
2022/12/13 15:02:05;;;;;;;35.93;24.20;;;;;;;-1.82;100.00;100806.84;5296184;28;20568;-74
2022/12/13 15:04:36;;;;;;;32.67;20.17;;;;;;;-1.87;100.00;100806.03;5308419;28;20046;-72
2022/12/13 15:07:27;;;;;;;33.07;22.47;;;;;;;-1.79;100.00;100803.41;5305263;28;20024;-72
2022/12/13 15:10:02;;;;;;;33.30;19.87;;;;;;;-1.81;100.00;100800.00;5313199;28;20024;-72
2022/12/13 15:12:33;;;;;;;28.23;19.50;;;;;;;-1.99;100.00;100785.63;5310925;28;20385;-72
2022/12/13 15:15:16;;;;;;;31.73;19.87;;;;;;;-1.88;100.00;100801.78;5309225;28;20028;-72
2022/12/13 15:17:47;;;;;;;30.67;21.23;;;;;;;-1.94;100.00;100794.13;5298152;28;20020;-72
2022/12/13 15:20:28;;;;;;;29.37;19.03;;;;;;;-1.94;100.00;100794.13;5306336;28;20277;-72
2022/12/13 15:23:09;;;;;;;32.10;20.70;;;;;;;-1.96;100.00;100783.03;5286960;28;20511;-72
2022/12/13 15:25:41;;;;;;;29.87;19.70;;;;;;;-2.03;100.00;100779.66;5302503;28;20367;-72
2022/12/13 15:28:14;;;;;;;28.53;20.23;;;;;;;-2.00;100.00;100787.34;5302418;28;20115;-72
2022/12/13 15:30:46;;;;;;;32.97;22.07;;;;;;;-2.01;100.00;100775.38;5299668;28;20134;-72
2022/12/13 15:33:21;;;;;;;33.23;19.90;;;;;;;-1.99;100.00;100776.19;5301686;28;20731;-72
2022/12/13 15:36:19;;;;;;;32.47;21.03;;;;;;;-1.95;100.00;100777.88;5300177;28;20597;-72
2022/12/13 15:38:53;;;;;;;33.43;21.60;;;;;;;-2.04;100.00;100775.38;5304454;28;20035;-72
2022/12/13 15:41:35;;;;;;;30.13;20.02;;;;;;;-2.10;100.00;100763.47;5301160;28;20840;-72
2022/12/13 15:44:18;;;;;;;30.13;19.77;;;;;;;-2.13;100.00;100755.78;5302909;28;20035;-72
2022/12/13 15:46:52;;;;;;;32.77;21.37;;;;;;;-2.10;100.00;100766.03;5304279;28;20123;-73
2022/12/13 15:49:31;;;;;;;34.13;21.73;;;;;;;-2.09;100.00;100764.28;5306088;28;20789;-72
2022/12/13 15:52:07;;;;;;;30.47;21.43;;;;;;;-2.10;100.00;100767.75;5285128;28;20297;-72
2022/12/13 15:54:38;;;;;;;31.90;20.17;;;;;;;-2.17;100.00;100753.25;5302465;28;20301;-72
2022/12/13 15:57:10;;;;;;;29.30;20.73;;;;;;;-2.10;100.00;100767.75;5284946;28;20092;-71
2022/12/13 15:59:42;;;;;;;37.40;20.07;;;;;;;-2.15;100.00;100759.22;5303551;28;20047;-72
2022/12/13 16:02:23;;;;;;;31.13;20.87;;;;;;;-1.97;100.00;100756.50;5302085;28;20114;-72
2022/12/13 16:05:04;;;;;;;37.00;21.67;;;;;;;-1.97;100.00;100761.63;5284430;28;21052;-72
2022/12/13 16:07:38;;;;;;;31.63;20.93;;;;;;;-2.10;100.00;100754.91;5300787;28;20865;-72
2022/12/13 16:10:17;;;;;;;31.75;21.30;;;;;;;-2.02;100.00;100755.69;5300602;28;20552;-72
2022/12/13 16:12:53;;;;;;;31.77;21.43;;;;;;;-2.27;100.00;100732.78;5283807;28;20027;-72
2022/12/13 16:15:31;;;;;;;39.10;22.17;;;;;;;-2.10;100.00;100754.91;5301037;28;20689;-72
2022/12/13 16:18:13;;;;;;;37.70;21.23;;;;;;;-2.08;100.00;100754.00;5300921;28;20055;-72
2022/12/13 16:20:45;;;;;;;31.17;20.67;;;;;;;-2.08;100.00;100755.75;5302064;28;20830;-72
2022/12/13 16:23:16;;;;;;;35.20;20.20;;;;;;;-2.22;100.00;100746.47;5299725;28;20194;-72
2022/12/13 16:25:47;;;;;;;32.83;20.97;;;;;;;-2.16;100.00;100762.66;5283218;28;20031;-72
2022/12/13 16:28:19;;;;;;;31.60;19.90;;;;;;;-2.22;100.00;100754.16;5302596;28;20057;-72
2022/12/13 16:30:53;;;;;;;34.90;20.47;;;;;;;-2.16;100.00;100758.38;5302580;28;20020;-72
2022/12/13 16:33:26;;;;;;;30.10;20.10;;;;;;;-2.21;100.00;100748.16;5302741;28;20034;-72
2022/12/13 16:35:57;;;;;;;39.27;21.77;;;;;;;-2.29;100.00;100734.53;5301076;28;20060;-72
2022/12/13 16:38:28;;;;;;;33.40;21.97;;;;;;;-2.21;100.00;100755.84;5301619;28;20107;-72
2022/12/13 16:41:00;;;;;;;29.27;20.03;;;;;;;-2.13;100.00;100763.47;5299278;28;20036;-72
2022/12/13 16:43:34;;;;;;;31.27;19.50;;;;;;;-2.22;100.00;100753.28;5298258;28;20510;-71
2022/12/13 16:46:05;;;;;;;29.10;18.87;;;;;;;-2.25;100.00;100756.72;5303616;28;20042;-72
2022/12/13 16:48:36;;;;;;;32.33;20.47;;;;;;;-2.10;100.00;100758.34;5304014;28;20032;-72
2022/12/13 16:51:08;;;;;;;33.77;20.40;;;;;;;-2.15;100.00;100751.53;5298377;28;20138;-71
2022/12/13 16:53:39;;;;;;;32.50;20.10;;;;;;;-2.29;100.00;100737.09;5299868;28;20470;-78
2022/12/13 16:56:13;;;;;;;32.73;19.80;;;;;;;-2.21;100.00;100739.59;5280767;28;20044;-73
2022/12/13 16:58:44;;;;;;;31.40;20.33;;;;;;;-2.16;100.00;100744.72;5301255;28;20027;-78
2022/12/13 17:01:19;;;;;;;31.23;20.10;;;;;;;-2.20;100.00;100742.13;5305537;28;20035;-76
2022/12/13 17:03:51;;;;;;;29.63;20.35;;;;;;;-2.15;100.00;100738.69;5283964;28;20839;-77
2022/12/13 17:06:23;;;;;;;31.27;19.77;;;;;;;-2.25;100.00;100738.75;5301070;28;20039;-72
2022/12/13 17:08:55;;;;;;;31.97;19.13;;;;;;;-2.31;100.00;100731.13;5297748;28;20028;-74
2022/12/13 17:11:26;;;;;;;29.67;17.33;;;;;;;-2.29;100.00;100739.66;5301860;28;20023;-74
2022/12/13 17:13:58;;;;;;;33.77;18.93;;;;;;;-2.29;100.00;100738.81;5283263;28;20031;-79
2022/12/13 17:16:30;;;;;;;25.97;17.47;;;;;;;-2.31;100.00;100739.69;5279545;28;20039;-79
2022/12/13 17:19:01;;;;;;;30.97;19.03;;;;;;;-2.45;100.00;100726.09;5299561;28;20032;-78
2022/12/13 17:21:32;;;;;;;32.13;19.63;;;;;;;-2.38;100.00;100745.72;5282859;28;20103;-73
2022/12/13 17:24:04;;;;;;;32.90;17.63;;;;;;;-2.37;100.00;100734.59;5281681;28;20031;-73
2022/12/13 17:26:35;;;;;;;31.00;18.33;;;;;;;-2.27;100.00;100749.91;5303644;28;20077;-73
2022/12/13 17:29:07;;;;;;;26.70;17.77;;;;;;;-2.31;100.00;100743.94;5303200;28;20051;-73
2022/12/13 17:31:38;;;;;;;25.97;16.47;;;;;;;-2.34;100.00;100746.53;5300763;28;20874;-73
2022/12/13 17:34:09;;;;;;;33.63;19.27;;;;;;;-2.31;100.00;100749.09;5303777;28;20055;-73
2022/12/13 17:36:42;;;;;;;28.00;17.90;;;;;;;-2.29;100.00;100747.38;5305331;28;20512;-74
2022/12/13 17:39:13;;;;;;;30.80;18.07;;;;;;;-2.45;100.00;100724.41;5300194;28;21794;-72
2022/12/13 17:41:45;;;;;;;32.03;19.30;;;;;;;-2.37;100.00;100736.28;5301172;28;20089;-73
2022/12/13 17:44:16;;;;;;;31.93;19.03;;;;;;;-2.29;100.00;100731.13;5300930;28;20058;-74
2022/12/13 17:46:48;;;;;;;31.00;18.37;;;;;;;-2.32;100.00;100731.97;5303759;28;20016;-76
2022/12/13 17:49:20;;;;;;;37.37;20.70;;;;;;;-2.39;100.00;100720.91;5303505;28;20032;-76
2022/12/13 17:51:54;;;;;;;31.37;20.17;;;;;;;-2.40;100.00;100733.75;5304224;28;20051;-76
2022/12/13 17:54:26;;;;;;;27.00;17.38;;;;;;;-2.45;100.00;100726.97;5299033;28;20718;-76
2022/12/13 17:56:57;;;;;;;29.17;18.93;;;;;;;-2.48;100.00;100724.41;5306973;28;20024;-74
2022/12/13 17:59:29;;;;;;;30.80;19.80;;;;;;;-2.54;100.00;100716.75;5305777;28;20032;-74
2022/12/13 18:02:00;;;;;;;28.53;18.83;;;;;;;-2.44;100.00;100735.47;5304952;28;20471;-73
2022/12/13 18:04:31;;;;;;;30.53;16.93;;;;;;;-2.39;100.00;100722.66;5303003;28;20030;-74
2022/12/13 18:07:03;;;;;;;29.27;18.57;;;;;;;-2.51;100.00;100710.78;5300149;28;20116;-74
2022/12/13 18:09:34;;;;;;;29.20;19.93;;;;;;;-2.46;100.00;100727.81;5300147;28;20515;-74
2022/12/13 18:12:07;;;;;;;30.00;19.87;;;;;;;-2.44;100.00;100728.66;5298747;28;20051;-74
2022/12/13 18:14:38;;;;;;;30.00;18.27;;;;;;;-2.59;100.00;100703.13;5301396;28;20065;-74
2022/12/13 18:17:09;;;;;;;34.23;17.87;;;;;;;-2.28;100.00;100725.97;5300486;28;20035;-74
2022/12/13 18:19:41;;;;;;;31.03;20.17;;;;;;;-2.40;100.00;100724.34;5305152;28;20038;-74
2022/12/13 18:22:13;;;;;;;28.43;18.90;;;;;;;-2.39;100.00;100735.47;5302913;28;20031;-72
2022/12/13 18:24:44;;;;;;;30.10;18.27;;;;;;;-2.38;100.00;100737.16;5305823;28;20020;-73
2022/12/13 18:27:15;;;;;;;32.00;19.37;;;;;;;-2.38;100.00;100737.16;5315116;28;20028;-73
2022/12/13 18:29:47;;;;;;;31.07;20.03;;;;;;;-2.39;100.00;100731.16;5307414;28;20042;-73
2022/12/13 18:32:18;;;;;;;32.20;18.80;;;;;;;-2.57;100.00;100706.53;5322744;28;20016;-73
2022/12/13 18:34:49;;;;;;;32.67;20.20;;;;;;;-2.34;100.00;100731.16;5320095;28;20043;-73
2022/12/13 18:37:20;;;;;;;33.37;19.53;;;;;;;-2.40;100.00;100713.22;5313583;28;20024;-73
2022/12/13 18:39:52;;;;;;;32.57;19.00;;;;;;;-2.25;100.00;100713.09;5315352;28;20052;-73
2022/12/13 18:42:23;;;;;;;29.40;18.90;;;;;;;-2.46;100.00;100694.47;5314408;28;20038;-73
2022/12/13 18:44:54;;;;;;;28.73;18.97;;;;;;;-2.41;100.00;100712.41;5312332;28;20024;-74
2022/12/13 18:47:26;;;;;;;32.13;20.17;;;;;;;-2.44;100.00;100705.56;5315624;28;20030;-74
2022/12/13 18:49:57;;;;;;;33.33;21.07;;;;;;;-2.51;100.00;100691.09;5308827;28;20036;-75
2022/12/13 18:52:28;;;;;;;29.73;18.73;;;;;;;-2.46;100.00;100684.19;5288233;28;20072;-74
2022/12/13 18:55:00;;;;;;;29.43;19.03;;;;;;;-2.56;100.00;100690.28;5312532;28;20026;-75
2022/12/13 18:57:31;;;;;;;28.47;18.53;;;;;;;-2.57;100.00;100686.88;5312733;28;20031;-75
2022/12/13 19:00:03;;;;;;;32.27;19.03;;;;;;;-2.64;100.00;100680.09;5303278;28;20015;-75
2022/12/13 19:02:34;;;;;;;32.83;21.73;;;;;;;-2.62;100.00;100673.25;5309168;28;20473;-75
2022/12/13 19:05:06;;;;;;;39.03;20.53;;;;;;;-2.68;100.00;100668.13;5317039;28;20047;-74
2022/12/13 19:07:37;;;;;;;28.30;18.40;;;;;;;-2.44;100.00;100681.63;5320392;28;20469;-75
2022/12/13 19:10:09;;;;;;;33.33;20.47;;;;;;;-2.51;100.00;100674.88;5320419;28;20654;-74
2022/12/13 19:12:40;;;;;;;34.70;19.33;;;;;;;-2.51;100.00;100664.59;5308604;28;20035;-73
2022/12/13 19:15:12;;;;;;;30.90;19.63;;;;;;;-2.56;100.00;100656.94;5307470;28;20024;-74
2022/12/13 19:17:45;;;;;;;33.53;20.93;;;;;;;-2.59;100.00;100678.34;5287691;28;20020;-75
2022/12/13 19:20:16;;;;;;;35.37;19.83;;;;;;;-2.64;100.00;100677.53;5304456;28;20505;-75
2022/12/13 19:22:48;;;;;;;31.70;21.40;;;;;;;-2.70;100.00;100667.28;5287366;28;20335;-75
2022/12/13 19:25:19;;;;;;;35.37;22.60;;;;;;;-2.73;100.00;100650.22;5301449;28;20031;-75
2022/12/13 19:27:55;;;;;;;29.83;18.60;;;;;;;-2.93;100.00;100597.41;5290644;28;20047;-74
2022/12/13 19:30:26;;;;;;;29.63;18.23;;;;;;;-2.69;100.00;100651.06;5307546;28;20032;-83
2022/12/13 19:32:58;;;;;;;29.70;19.97;;;;;;;-2.58;100.00;100649.25;5303973;28;20646;-81
2022/12/13 19:35:29;;;;;;;33.80;19.57;;;;;;;-2.74;100.00;100648.50;5297103;28;20048;-77
2022/12/13 19:38:00;;;;;;;32.53;20.13;;;;;;;-2.70;100.00;100639.09;5300728;28;20016;-79
2022/12/13 19:40:32;;;;;;;32.23;19.20;;;;;;;-2.71;100.00;100643.38;5302354;28;20063;-77
2022/12/13 19:43:03;;;;;;;32.07;20.30;;;;;;;-2.68;100.00;100653.63;5285875;28;20032;-83
2022/12/13 19:45:34;;;;;;;34.63;20.73;;;;;;;-2.71;100.00;100647.66;5302527;28;20047;-85
2022/12/13 19:48:05;;;;;;;34.07;20.33;;;;;;;-2.79;100.00;100640.00;5282750;28;20032;-84
2022/12/13 19:50:37;;;;;;;28.23;18.77;;;;;;;-2.75;100.00;100644.25;5304885;28;20036;-78
2022/12/13 19:53:09;;;;;;;30.57;19.93;;;;;;;-2.80;100.00;100622.94;5304590;28;20745;-84
2022/12/13 19:55:44;;;;;;;31.00;19.53;;;;;;;-2.84;100.00;100614.41;5309421;28;20046;-78
2022/12/13 19:58:15;;;;;;;31.03;20.77;;;;;;;-2.85;100.00;100615.28;5308268;28;20162;-78
2022/12/13 20:00:46;;;;;;;32.57;20.60;;;;;;;-2.86;100.00;100607.63;5307445;28;20762;-79
2022/12/13 20:03:18;;;;;;;31.53;20.10;;;;;;;-2.82;100.00;100617.81;5283846;28;20043;-73
2022/12/13 20:06:00;;;;;;;33.43;21.23;;;;;;;-2.81;100.00;100611.81;5297288;28;20043;-74
2022/12/13 20:08:32;;;;;;;33.07;20.50;;;;;;;-2.89;100.00;100599.94;5300473;28;20123;-73
2022/12/13 20:11:10;;;;;;;31.50;20.33;;;;;;;-2.89;100.00;100597.38;5297544;28;20277;-73
2022/12/13 20:13:41;;;;;;;32.27;19.83;;;;;;;-2.90;100.00;100595.69;5300595;28;20446;-72
2022/12/13 20:16:15;;;;;;;38.43;21.03;;;;;;;-2.88;100.00;100588.84;5300448;28;20364;-72
2022/12/13 20:18:51;;;;;;;35.97;21.50;;;;;;;-2.92;100.00;100578.59;5296077;28;20067;-71
2022/12/13 20:21:23;;;;;;;30.93;20.80;;;;;;;-2.92;100.00;100588.88;5284366;28;20372;-73
2022/12/13 20:23:56;;;;;;;32.93;21.13;;;;;;;-2.83;100.00;100580.22;5300591;28;20380;-73
2022/12/13 20:26:30;;;;;;;32.40;19.97;;;;;;;-2.86;100.00;100576.84;5297124;28;20122;-73
2022/12/13 20:29:01;;;;;;;29.93;20.20;;;;;;;-2.94;100.00;100575.19;5297568;28;20290;-72
2022/12/13 20:31:35;;;;;;;33.83;19.97;;;;;;;-3.00;100.00;100559.84;5303393;28;20943;-73
2022/12/13 20:34:12;;;;;;;27.75;17.00;;;;;;;-2.94;100.00;100564.94;5299025;28;20573;-73
2022/12/13 20:36:44;;;;;;;30.30;19.20;;;;;;;-2.85;100.00;100553.78;5279653;28;20042;-72
2022/12/13 20:39:15;;;;;;;36.10;20.57;;;;;;;-2.88;100.00;100547.81;5298951;28;20660;-72
2022/12/13 20:41:47;;;;;;;35.40;20.63;;;;;;;-2.84;100.00;100550.34;5278988;28;20553;-73
2022/12/13 20:44:18;;;;;;;30.20;18.43;;;;;;;-2.85;100.00;100551.22;5279805;28;20051;-73
2022/12/13 20:46:49;;;;;;;29.97;19.60;;;;;;;-2.87;100.00;100555.50;5297729;28;20031;-74
2022/12/13 20:49:21;;;;;;;31.40;18.33;;;;;;;-2.75;100.00;100554.53;5300681;28;20028;-73
2022/12/13 20:51:52;;;;;;;27.97;19.17;;;;;;;-2.81;100.00;100552.03;5280985;28;20032;-74
2022/12/13 20:54:23;;;;;;;32.70;18.67;;;;;;;-2.85;100.00;100547.78;5297274;28;20043;-74
2022/12/13 20:56:54;;;;;;;28.50;17.53;;;;;;;-2.85;100.00;100540.09;5297104;28;20016;-73
2022/12/13 20:59:26;;;;;;;26.83;17.83;;;;;;;-2.93;100.00;100522.22;5300589;28;20509;-73
2022/12/13 21:01:57;;;;;;;32.23;17.67;;;;;;;-2.92;100.00;100524.78;5297277;28;20038;-72
2022/12/13 21:04:28;;;;;;;29.20;18.33;;;;;;;-2.86;100.00;100521.28;5299598;28;20070;-72
2022/12/13 21:07:01;;;;;;;30.77;18.67;;;;;;;-2.94;100.00;100518.81;5277137;28;20123;-71
2022/12/13 21:09:32;;;;;;;26.07;17.23;;;;;;;-2.92;100.00;100517.09;5296548;28;20414;-72
2022/12/13 21:12:04;;;;;;;27.00;17.83;;;;;;;-3.07;100.00;100496.75;5297131;28;20316;-72
2022/12/13 21:14:35;;;;;;;26.53;16.60;;;;;;;-2.92;100.00;100517.09;5300885;28;20695;-75
2022/12/13 21:17:08;;;;;;;27.43;18.13;;;;;;;-2.79;100.00;100511.84;5299599;28;20038;-75
2022/12/13 21:19:40;;;;;;;26.47;16.40;;;;;;;-2.79;100.00;100511.84;5281173;28;20039;-79
2022/12/13 21:22:11;;;;;;;36.97;19.43;;;;;;;-2.84;100.00;100513.59;5281751;28;20277;-74
2022/12/13 21:24:43;;;;;;;26.50;16.53;;;;;;;-2.92;100.00;100506.84;5304156;28;20024;-73
2022/12/13 21:27:14;;;;;;;24.33;17.03;;;;;;;-3.07;100.00;100471.94;5307836;28;20020;-78
2022/12/13 21:29:45;;;;;;;27.10;16.27;;;;;;;-2.95;100.00;100493.22;5305019;28;20470;-76
2022/12/13 21:32:17;;;;;;;28.90;16.30;;;;;;;-2.81;100.00;100499.03;5309305;28;20059;-73
2022/12/13 21:34:48;;;;;;;29.30;16.87;;;;;;;-2.86;100.00;100495.66;5289324;28;20047;-75
2022/12/13 21:37:19;;;;;;;25.13;15.67;;;;;;;-2.79;100.00;100501.59;5291163;28;20112;-73
2022/12/13 21:39:50;;;;;;;23.40;15.10;;;;;;;-2.97;100.00;100472.72;5315303;28;20474;-74
2022/12/13 21:42:22;;;;;;;27.20;17.63;;;;;;;-2.93;100.00;100482.06;5305487;28;20032;-73
2022/12/13 21:44:53;;;;;;;28.37;15.80;;;;;;;-2.89;100.00;100488.00;5309036;28;20059;-74
2022/12/13 21:47:24;;;;;;;26.10;16.13;;;;;;;-2.93;100.00;100482.06;5298380;28;20024;-76
2022/12/13 21:49:55;;;;;;;23.87;15.03;;;;;;;-2.90;100.00;100485.47;5306284;28;20023;-79
2022/12/13 21:52:27;;;;;;;24.97;15.30;;;;;;;-3.01;100.00;100468.47;5289244;28;20058;-81
2022/12/13 21:54:58;;;;;;;27.67;14.93;;;;;;;-3.00;100.00;100472.72;5303665;28;20028;-76
2022/12/13 22:00:19;;;;;;;27.20;16.07;;;;;;;-3.14;100.00;100446.41;5314874;28;20031;-74
2022/12/13 22:02:51;;;;;;;23.97;14.50;;;;;;;-2.98;100.00;100465.88;5315753;28;20273;-78
2022/12/13 22:05:22;;;;;;;23.13;14.27;;;;;;;-2.97;100.00;100466.75;5314121;28;20031;-73
2022/12/13 22:07:53;;;;;;;22.60;14.97;;;;;;;-3.01;100.00;100462.50;5317004;28;20059;-77
2022/12/13 22:10:25;;;;;;;28.33;16.40;;;;;;;-3.01;100.00;100449.69;5306268;28;20494;-74
2022/12/13 22:12:56;;;;;;;23.57;15.93;;;;;;;-3.04;100.00;100448.03;5312250;28;20100;-75
2022/12/13 22:15:28;;;;;;;24.30;14.00;;;;;;;-3.05;100.00;100434.34;5314336;28;20102;-73
2022/12/13 22:17:59;;;;;;;21.40;13.00;;;;;;;-3.15;100.00;100430.19;5323393;28;20490;-75
2022/12/13 22:20:30;;;;;;;26.60;15.13;;;;;;;-3.00;100.00;100441.16;5315628;28;20027;-73
2022/12/13 22:23:01;;;;;;;22.97;13.83;;;;;;;-3.01;100.00;100444.56;5315963;28;20020;-74
2022/12/13 22:25:34;;;;;;;20.87;13.07;;;;;;;-2.98;100.00;100440.25;5319320;28;20036;-74
2022/12/13 22:28:06;;;;;;;20.40;13.70;;;;;;;-3.05;100.00;100430.94;5310960;28;20030;-75
2022/12/13 22:30:37;;;;;;;24.17;14.60;;;;;;;-3.06;100.00;100431.81;5310950;28;20270;-74
2022/12/13 22:33:08;;;;;;;23.27;13.23;;;;;;;-3.02;100.00;100432.63;5312603;28;20031;-73
2022/12/13 22:35:39;;;;;;;20.43;12.10;;;;;;;-3.00;100.00;100426.59;5309235;28;20753;-73
2022/12/13 22:38:11;;;;;;;19.43;13.30;;;;;;;-3.02;100.00;100425.81;5312608;28;20105;-72
2022/12/13 22:40:42;;;;;;;20.67;13.00;;;;;;;-3.04;100.00;100435.22;5298460;28;20034;-72
2022/12/13 22:43:13;;;;;;;20.47;13.13;;;;;;;-3.07;100.00;100423.25;5314868;28;20425;-72
2022/12/13 22:45:44;;;;;;;22.73;12.90;;;;;;;-3.10;100.00;100425.00;5320342;28;20027;-71
2022/12/13 22:48:16;;;;;;;21.43;12.50;;;;;;;-3.08;100.00;100434.38;5319072;28;20102;-71
